sensor_id;sensor_type;location;lat;lon;timestamp;P1;durP1;ratioP1;P2;durP2;ratioP2
64110;SDS011;50401;48.188;11.566;2023-03-03T00:00:19;103.63;;;34.05;;
64110;SDS011;50401;48.188;11.566;2023-03-03T00:02:44;125.03;;;36.47;;
64110;SDS011;50401;48.188;11.566;2023-03-03T00:05:10;99.30;;;34.63;;
64110;SDS011;50401;48.188;11.566;2023-03-03T00:07:39;120.88;;;39.38;;
64110;SDS011;50401;48.188;11.566;2023-03-03T00:10:07;113.57;;;36.17;;
64110;SDS011;50401;48.188;11.566;2023-03-03T00:12:33;120.57;;;35.92;;
64110;SDS011;50401;48.188;11.566;2023-03-03T00:14:59;120.43;;;35.20;;
64110;SDS011;50401;48.188;11.566;2023-03-03T00:17:26;119.97;;;37.47;;
64110;SDS011;50401;48.188;11.566;2023-03-03T00:19:53;117.07;;;36.63;;
64110;SDS011;50401;48.188;11.566;2023-03-03T00:22:29;111.78;;;35.65;;
64110;SDS011;50401;48.188;11.566;2023-03-03T00:25:20;113.78;;;35.72;;
64110;SDS011;50401;48.188;11.566;2023-03-03T00:27:52;116.88;;;36.13;;
64110;SDS011;50401;48.188;11.566;2023-03-03T00:30:25;116.00;;;38.10;;
64110;SDS011;50401;48.188;11.566;2023-03-03T00:32:52;113.55;;;36.88;;
64110;SDS011;50401;48.188;11.566;2023-03-03T00:35:26;110.65;;;35.80;;
64110;SDS011;50401;48.188;11.566;2023-03-03T00:38:00;109.65;;;37.53;;
64110;SDS011;50401;48.188;11.566;2023-03-03T00:40:38;134.07;;;39.90;;
64110;SDS011;50401;48.188;11.566;2023-03-03T00:43:13;125.85;;;39.30;;
64110;SDS011;50401;48.188;11.566;2023-03-03T00:45:44;117.90;;;35.35;;
64110;SDS011;50401;48.188;11.566;2023-03-03T00:50:49;122.57;;;37.60;;
64110;SDS011;50401;48.188;11.566;2023-03-03T00:53:17;123.07;;;39.03;;
64110;SDS011;50401;48.188;11.566;2023-03-03T00:55:45;121.18;;;37.38;;
64110;SDS011;50401;48.188;11.566;2023-03-03T00:58:11;109.22;;;34.30;;
64110;SDS011;50401;48.188;11.566;2023-03-03T01:00:38;129.77;;;38.88;;
64110;SDS011;50401;48.188;11.566;2023-03-03T01:03:06;121.78;;;36.65;;
64110;SDS011;50401;48.188;11.566;2023-03-03T01:05:34;134.75;;;38.95;;
64110;SDS011;50401;48.188;11.566;2023-03-03T01:08:00;122.50;;;40.50;;
64110;SDS011;50401;48.188;11.566;2023-03-03T01:10:26;120.38;;;37.55;;
64110;SDS011;50401;48.188;11.566;2023-03-03T01:12:54;124.55;;;36.42;;
64110;SDS011;50401;48.188;11.566;2023-03-03T01:15:20;139.80;;;39.33;;
64110;SDS011;50401;48.188;11.566;2023-03-03T01:17:45;136.85;;;39.13;;
64110;SDS011;50401;48.188;11.566;2023-03-03T01:20:12;112.82;;;38.03;;
64110;SDS011;50401;48.188;11.566;2023-03-03T01:22:39;133.52;;;38.05;;
64110;SDS011;50401;48.188;11.566;2023-03-03T01:25:05;118.95;;;37.25;;
64110;SDS011;50401;48.188;11.566;2023-03-03T01:27:31;121.25;;;39.28;;
64110;SDS011;50401;48.188;11.566;2023-03-03T01:29:58;116.47;;;37.22;;
64110;SDS011;50401;48.188;11.566;2023-03-03T01:32:23;119.20;;;38.63;;
64110;SDS011;50401;48.188;11.566;2023-03-03T01:34:49;111.93;;;38.17;;
64110;SDS011;50401;48.188;11.566;2023-03-03T01:37:15;119.32;;;35.53;;
64110;SDS011;50401;48.188;11.566;2023-03-03T01:39:40;116.60;;;36.42;;
64110;SDS011;50401;48.188;11.566;2023-03-03T01:42:05;140.07;;;38.85;;
64110;SDS011;50401;48.188;11.566;2023-03-03T01:44:32;130.55;;;38.40;;
64110;SDS011;50401;48.188;11.566;2023-03-03T01:47:04;131.30;;;37.95;;
64110;SDS011;50401;48.188;11.566;2023-03-03T01:49:35;129.50;;;39.03;;
64110;SDS011;50401;48.188;11.566;2023-03-03T01:52:14;127.25;;;40.42;;
64110;SDS011;50401;48.188;11.566;2023-03-03T01:54:56;121.83;;;37.33;;
64110;SDS011;50401;48.188;11.566;2023-03-03T01:57:26;110.65;;;35.80;;
64110;SDS011;50401;48.188;11.566;2023-03-03T01:59:55;127.43;;;36.70;;
64110;SDS011;50401;48.188;11.566;2023-03-03T02:02:24;129.75;;;35.95;;
64110;SDS011;50401;48.188;11.566;2023-03-03T02:04:51;128.65;;;39.10;;
64110;SDS011;50401;48.188;11.566;2023-03-03T02:07:17;125.20;;;37.83;;
64110;SDS011;50401;48.188;11.566;2023-03-03T02:12:32;114.13;;;36.40;;
64110;SDS011;50401;48.188;11.566;2023-03-03T02:15:29;132.73;;;38.47;;
64110;SDS011;50401;48.188;11.566;2023-03-03T02:18:14;128.15;;;38.28;;
64110;SDS011;50401;48.188;11.566;2023-03-03T02:26:17;111.65;;;36.50;;
64110;SDS011;50401;48.188;11.566;2023-03-03T02:28:46;128.98;;;38.90;;
64110;SDS011;50401;48.188;11.566;2023-03-03T02:31:14;131.80;;;37.78;;
64110;SDS011;50401;48.188;11.566;2023-03-03T02:33:42;129.98;;;38.58;;
64110;SDS011;50401;48.188;11.566;2023-03-03T02:36:13;125.95;;;38.05;;
64110;SDS011;50401;48.188;11.566;2023-03-03T02:44:08;120.32;;;37.03;;
64110;SDS011;50401;48.188;11.566;2023-03-03T02:46:42;118.93;;;37.30;;
64110;SDS011;50401;48.188;11.566;2023-03-03T02:49:09;128.90;;;38.05;;
64110;SDS011;50401;48.188;11.566;2023-03-03T02:51:37;132.50;;;37.40;;
64110;SDS011;50401;48.188;11.566;2023-03-03T02:54:03;125.93;;;39.10;;
64110;SDS011;50401;48.188;11.566;2023-03-03T02:56:29;142.55;;;38.83;;
64110;SDS011;50401;48.188;11.566;2023-03-03T02:58:54;120.22;;;37.70;;
64110;SDS011;50401;48.188;11.566;2023-03-03T03:01:20;133.68;;;38.42;;
64110;SDS011;50401;48.188;11.566;2023-03-03T03:03:46;123.15;;;38.83;;
64110;SDS011;50401;48.188;11.566;2023-03-03T03:06:11;135.95;;;39.00;;
64110;SDS011;50401;48.188;11.566;2023-03-03T03:08:37;121.05;;;38.40;;
64110;SDS011;50401;48.188;11.566;2023-03-03T03:11:03;133.73;;;40.30;;
64110;SDS011;50401;48.188;11.566;2023-03-03T03:13:30;130.13;;;39.38;;
64110;SDS011;50401;48.188;11.566;2023-03-03T03:15:56;127.28;;;39.00;;
64110;SDS011;50401;48.188;11.566;2023-03-03T03:18:21;134.55;;;38.90;;
64110;SDS011;50401;48.188;11.566;2023-03-03T03:20:47;123.28;;;39.67;;
64110;SDS011;50401;48.188;11.566;2023-03-03T03:23:13;122.50;;;37.65;;
64110;SDS011;50401;48.188;11.566;2023-03-03T03:25:39;130.18;;;40.55;;
64110;SDS011;50401;48.188;11.566;2023-03-03T03:28:10;133.35;;;40.13;;
64110;SDS011;50401;48.188;11.566;2023-03-03T03:30:36;130.18;;;40.35;;
64110;SDS011;50401;48.188;11.566;2023-03-03T03:33:02;114.80;;;37.15;;
64110;SDS011;50401;48.188;11.566;2023-03-03T03:35:28;126.45;;;37.70;;
64110;SDS011;50401;48.188;11.566;2023-03-03T03:37:53;122.75;;;37.67;;
64110;SDS011;50401;48.188;11.566;2023-03-03T03:40:19;126.40;;;39.63;;
64110;SDS011;50401;48.188;11.566;2023-03-03T03:42:44;127.05;;;38.63;;
64110;SDS011;50401;48.188;11.566;2023-03-03T03:45:10;124.45;;;38.40;;
64110;SDS011;50401;48.188;11.566;2023-03-03T03:47:39;125.35;;;39.30;;
64110;SDS011;50401;48.188;11.566;2023-03-03T03:50:05;123.00;;;38.22;;
64110;SDS011;50401;48.188;11.566;2023-03-03T03:52:31;127.45;;;40.55;;
64110;SDS011;50401;48.188;11.566;2023-03-03T03:54:56;130.95;;;42.28;;
64110;SDS011;50401;48.188;11.566;2023-03-03T03:57:22;137.05;;;41.00;;
64110;SDS011;50401;48.188;11.566;2023-03-03T03:59:48;132.15;;;39.35;;
64110;SDS011;50401;48.188;11.566;2023-03-03T04:02:14;136.73;;;41.35;;
64110;SDS011;50401;48.188;11.566;2023-03-03T04:04:39;129.75;;;41.30;;
64110;SDS011;50401;48.188;11.566;2023-03-03T04:07:05;113.78;;;35.88;;
64110;SDS011;50401;48.188;11.566;2023-03-03T04:09:30;140.95;;;42.05;;
64110;SDS011;50401;48.188;11.566;2023-03-03T04:11:56;131.55;;;39.28;;
64110;SDS011;50401;48.188;11.566;2023-03-03T04:14:21;130.85;;;43.28;;
64110;SDS011;50401;48.188;11.566;2023-03-03T04:16:46;143.00;;;39.25;;
64110;SDS011;50401;48.188;11.566;2023-03-03T04:19:12;124.97;;;40.90;;
64110;SDS011;50401;48.188;11.566;2023-03-03T04:21:37;124.65;;;39.53;;
64110;SDS011;50401;48.188;11.566;2023-03-03T04:24:03;125.45;;;37.75;;
64110;SDS011;50401;48.188;11.566;2023-03-03T04:26:29;134.95;;;40.28;;
64110;SDS011;50401;48.188;11.566;2023-03-03T04:28:55;127.38;;;38.75;;
64110;SDS011;50401;48.188;11.566;2023-03-03T04:31:22;133.95;;;40.30;;
64110;SDS011;50401;48.188;11.566;2023-03-03T04:33:49;123.90;;;38.50;;
64110;SDS011;50401;48.188;11.566;2023-03-03T04:36:15;130.70;;;41.00;;
64110;SDS011;50401;48.188;11.566;2023-03-03T04:38:41;133.85;;;40.63;;
64110;SDS011;50401;48.188;11.566;2023-03-03T04:41:06;129.82;;;39.78;;
64110;SDS011;50401;48.188;11.566;2023-03-03T04:43:31;136.70;;;42.17;;
64110;SDS011;50401;48.188;11.566;2023-03-03T04:45:57;133.00;;;42.22;;
64110;SDS011;50401;48.188;11.566;2023-03-03T04:48:22;136.20;;;38.78;;
64110;SDS011;50401;48.188;11.566;2023-03-03T04:50:48;131.68;;;40.38;;
64110;SDS011;50401;48.188;11.566;2023-03-03T04:53:13;135.02;;;40.80;;
64110;SDS011;50401;48.188;11.566;2023-03-03T04:55:38;136.02;;;40.95;;
64110;SDS011;50401;48.188;11.566;2023-03-03T04:58:04;118.90;;;39.20;;
64110;SDS011;50401;48.188;11.566;2023-03-03T05:00:30;123.47;;;39.35;;
64110;SDS011;50401;48.188;11.566;2023-03-03T05:02:55;141.60;;;41.65;;
64110;SDS011;50401;48.188;11.566;2023-03-03T05:05:21;128.15;;;39.80;;
64110;SDS011;50401;48.188;11.566;2023-03-03T05:07:46;131.55;;;39.65;;
64110;SDS011;50401;48.188;11.566;2023-03-03T05:10:12;148.75;;;40.58;;
64110;SDS011;50401;48.188;11.566;2023-03-03T05:12:37;143.43;;;42.85;;
64110;SDS011;50401;48.188;11.566;2023-03-03T05:15:03;137.48;;;41.28;;
64110;SDS011;50401;48.188;11.566;2023-03-03T05:17:29;131.88;;;40.22;;
64110;SDS011;50401;48.188;11.566;2023-03-03T05:19:54;140.82;;;42.78;;
64110;SDS011;50401;48.188;11.566;2023-03-03T05:22:21;152.02;;;45.05;;
64110;SDS011;50401;48.188;11.566;2023-03-03T05:24:47;149.68;;;42.28;;
64110;SDS011;50401;48.188;11.566;2023-03-03T05:27:13;154.15;;;44.22;;
64110;SDS011;50401;48.188;11.566;2023-03-03T05:29:39;147.70;;;41.53;;
64110;SDS011;50401;48.188;11.566;2023-03-03T05:32:05;157.40;;;42.15;;
64110;SDS011;50401;48.188;11.566;2023-03-03T05:34:30;136.57;;;41.75;;
64110;SDS011;50401;48.188;11.566;2023-03-03T05:36:55;140.43;;;40.45;;
64110;SDS011;50401;48.188;11.566;2023-03-03T05:39:21;142.27;;;41.03;;
64110;SDS011;50401;48.188;11.566;2023-03-03T05:41:47;147.05;;;43.40;;
64110;SDS011;50401;48.188;11.566;2023-03-03T05:44:12;132.23;;;40.65;;
64110;SDS011;50401;48.188;11.566;2023-03-03T05:46:38;153.85;;;42.25;;
64110;SDS011;50401;48.188;11.566;2023-03-03T05:49:04;151.05;;;45.60;;
64110;SDS011;50401;48.188;11.566;2023-03-03T05:51:29;149.10;;;42.92;;
64110;SDS011;50401;48.188;11.566;2023-03-03T05:53:55;128.88;;;42.47;;
64110;SDS011;50401;48.188;11.566;2023-03-03T05:56:20;139.13;;;43.33;;
64110;SDS011;50401;48.188;11.566;2023-03-03T05:58:46;133.82;;;41.45;;
64110;SDS011;50401;48.188;11.566;2023-03-03T06:01:11;139.50;;;43.42;;
64110;SDS011;50401;48.188;11.566;2023-03-03T06:03:37;145.98;;;42.63;;
64110;SDS011;50401;48.188;11.566;2023-03-03T06:06:02;136.70;;;42.88;;
64110;SDS011;50401;48.188;11.566;2023-03-03T06:08:28;155.98;;;42.92;;
64110;SDS011;50401;48.188;11.566;2023-03-03T06:10:54;156.70;;;42.95;;
64110;SDS011;50401;48.188;11.566;2023-03-03T06:13:19;134.05;;;40.42;;
64110;SDS011;50401;48.188;11.566;2023-03-03T06:15:45;148.27;;;43.35;;
64110;SDS011;50401;48.188;11.566;2023-03-03T06:18:10;134.85;;;41.60;;
64110;SDS011;50401;48.188;11.566;2023-03-03T06:20:36;139.52;;;42.47;;
64110;SDS011;50401;48.188;11.566;2023-03-03T06:23:02;148.02;;;43.38;;
64110;SDS011;50401;48.188;11.566;2023-03-03T06:25:28;140.48;;;41.00;;
64110;SDS011;50401;48.188;11.566;2023-03-03T06:27:53;139.45;;;44.28;;
64110;SDS011;50401;48.188;11.566;2023-03-03T06:30:19;162.00;;;41.28;;
64110;SDS011;50401;48.188;11.566;2023-03-03T06:32:45;147.50;;;41.90;;
64110;SDS011;50401;48.188;11.566;2023-03-03T06:35:10;133.10;;;42.65;;
64110;SDS011;50401;48.188;11.566;2023-03-03T06:37:36;142.90;;;41.83;;
64110;SDS011;50401;48.188;11.566;2023-03-03T06:40:02;144.57;;;42.33;;
64110;SDS011;50401;48.188;11.566;2023-03-03T06:42:29;138.75;;;41.63;;
64110;SDS011;50401;48.188;11.566;2023-03-03T06:44:54;149.45;;;43.25;;
64110;SDS011;50401;48.188;11.566;2023-03-03T06:47:20;149.52;;;43.50;;
64110;SDS011;50401;48.188;11.566;2023-03-03T06:49:46;146.45;;;42.65;;
64110;SDS011;50401;48.188;11.566;2023-03-03T06:52:12;153.35;;;43.03;;
64110;SDS011;50401;48.188;11.566;2023-03-03T06:54:41;146.40;;;43.42;;
64110;SDS011;50401;48.188;11.566;2023-03-03T06:57:16;150.52;;;44.05;;
64110;SDS011;50401;48.188;11.566;2023-03-03T06:59:51;153.13;;;44.33;;
64110;SDS011;50401;48.188;11.566;2023-03-03T07:02:18;160.98;;;45.55;;
64110;SDS011;50401;48.188;11.566;2023-03-03T07:04:45;148.05;;;45.08;;
64110;SDS011;50401;48.188;11.566;2023-03-03T07:09:40;150.33;;;44.07;;
64110;SDS011;50401;48.188;11.566;2023-03-03T07:12:15;146.13;;;44.38;;
64110;SDS011;50401;48.188;11.566;2023-03-03T07:14:45;148.25;;;45.60;;
64110;SDS011;50401;48.188;11.566;2023-03-03T07:17:16;148.77;;;43.95;;
64110;SDS011;50401;48.188;11.566;2023-03-03T07:19:43;158.25;;;45.10;;
64110;SDS011;50401;48.188;11.566;2023-03-03T07:24:45;149.63;;;44.80;;
64110;SDS011;50401;48.188;11.566;2023-03-03T07:27:25;149.13;;;45.53;;
64110;SDS011;50401;48.188;11.566;2023-03-03T07:30:01;153.93;;;46.95;;
64110;SDS011;50401;48.188;11.566;2023-03-03T07:32:44;152.18;;;45.67;;
64110;SDS011;50401;48.188;11.566;2023-03-03T07:35:28;146.60;;;43.85;;
64110;SDS011;50401;48.188;11.566;2023-03-03T07:37:55;152.27;;;45.95;;
64110;SDS011;50401;48.188;11.566;2023-03-03T07:40:28;144.25;;;44.78;;
64110;SDS011;50401;48.188;11.566;2023-03-03T07:45:29;162.93;;;44.72;;
64110;SDS011;50401;48.188;11.566;2023-03-03T07:50:49;139.15;;;45.28;;
64110;SDS011;50401;48.188;11.566;2023-03-03T07:53:21;148.35;;;43.53;;
64110;SDS011;50401;48.188;11.566;2023-03-03T07:55:58;136.45;;;44.65;;
64110;SDS011;50401;48.188;11.566;2023-03-03T07:58:37;151.75;;;45.78;;
64110;SDS011;50401;48.188;11.566;2023-03-03T08:04:08;156.75;;;47.55;;
64110;SDS011;50401;48.188;11.566;2023-03-03T08:06:46;145.30;;;44.13;;
64110;SDS011;50401;48.188;11.566;2023-03-03T08:11:50;150.17;;;44.37;;
64110;SDS011;50401;48.188;11.566;2023-03-03T08:14:21;149.43;;;46.10;;
64110;SDS011;50401;48.188;11.566;2023-03-03T08:16:51;169.63;;;47.88;;
64110;SDS011;50401;48.188;11.566;2023-03-03T08:19:16;177.50;;;49.33;;
64110;SDS011;50401;48.188;11.566;2023-03-03T08:21:42;168.93;;;49.08;;
64110;SDS011;50401;48.188;11.566;2023-03-03T08:24:07;151.65;;;45.97;;
64110;SDS011;50401;48.188;11.566;2023-03-03T08:26:33;151.10;;;46.22;;
64110;SDS011;50401;48.188;11.566;2023-03-03T08:28:59;179.35;;;45.88;;
64110;SDS011;50401;48.188;11.566;2023-03-03T08:31:25;170.07;;;46.05;;
64110;SDS011;50401;48.188;11.566;2023-03-03T08:33:50;154.27;;;45.47;;
64110;SDS011;50401;48.188;11.566;2023-03-03T08:36:16;187.32;;;49.35;;
64110;SDS011;50401;48.188;11.566;2023-03-03T08:38:42;162.43;;;49.28;;
64110;SDS011;50401;48.188;11.566;2023-03-03T08:41:07;186.50;;;47.25;;
64110;SDS011;50401;48.188;11.566;2023-03-03T08:43:33;155.80;;;46.95;;
64110;SDS011;50401;48.188;11.566;2023-03-03T08:46:00;171.93;;;46.83;;
64110;SDS011;50401;48.188;11.566;2023-03-03T08:48:28;195.80;;;48.75;;
64110;SDS011;50401;48.188;11.566;2023-03-03T08:50:53;193.80;;;47.10;;
64110;SDS011;50401;48.188;11.566;2023-03-03T08:53:19;238.73;;;48.67;;
64110;SDS011;50401;48.188;11.566;2023-03-03T08:55:45;170.00;;;45.95;;
64110;SDS011;50401;48.188;11.566;2023-03-03T08:58:12;179.35;;;46.67;;
64110;SDS011;50401;48.188;11.566;2023-03-03T09:00:38;207.27;;;48.83;;
64110;SDS011;50401;48.188;11.566;2023-03-03T09:03:03;176.57;;;46.35;;
64110;SDS011;50401;48.188;11.566;2023-03-03T09:05:31;146.20;;;45.88;;
64110;SDS011;50401;48.188;11.566;2023-03-03T09:07:57;162.02;;;47.55;;
64110;SDS011;50401;48.188;11.566;2023-03-03T09:10:24;198.57;;;46.40;;
64110;SDS011;50401;48.188;11.566;2023-03-03T09:12:55;208.38;;;46.10;;
64110;SDS011;50401;48.188;11.566;2023-03-03T09:15:29;191.80;;;47.50;;
64110;SDS011;50401;48.188;11.566;2023-03-03T09:17:57;192.13;;;48.03;;
64110;SDS011;50401;48.188;11.566;2023-03-03T09:25:48;197.07;;;48.03;;
64110;SDS011;50401;48.188;11.566;2023-03-03T09:28:20;172.63;;;45.25;;
64110;SDS011;50401;48.188;11.566;2023-03-03T09:30:52;186.75;;;47.25;;
64110;SDS011;50401;48.188;11.566;2023-03-03T09:33:23;237.52;;;51.88;;
64110;SDS011;50401;48.188;11.566;2023-03-03T09:38:48;308.80;;;54.55;;
64110;SDS011;50401;48.188;11.566;2023-03-03T09:54:35;174.63;;;43.70;;
64110;SDS011;50401;48.188;11.566;2023-03-03T09:57:20;123.97;;;42.10;;
64110;SDS011;50401;48.188;11.566;2023-03-03T10:02:42;178.23;;;45.13;;
64110;SDS011;50401;48.188;11.566;2023-03-03T10:05:55;163.38;;;46.05;;
64110;SDS011;50401;48.188;11.566;2023-03-03T10:08:29;120.50;;;42.22;;
64110;SDS011;50401;48.188;11.566;2023-03-03T10:19:19;166.10;;;44.75;;
64110;SDS011;50401;48.188;11.566;2023-03-03T10:21:57;150.75;;;42.47;;
64110;SDS011;50401;48.188;11.566;2023-03-03T10:38:18;142.77;;;45.60;;
64110;SDS011;50401;48.188;11.566;2023-03-03T10:49:12;125.35;;;42.85;;
64110;SDS011;50401;48.188;11.566;2023-03-03T10:57:23;141.27;;;41.95;;
64110;SDS011;50401;48.188;11.566;2023-03-03T11:08:06;113.65;;;42.05;;
64110;SDS011;50401;48.188;11.566;2023-03-03T11:17:04;132.57;;;42.55;;
64110;SDS011;50401;48.188;11.566;2023-03-03T11:22:46;145.10;;;43.92;;
64110;SDS011;50401;48.188;11.566;2023-03-03T11:25:22;117.18;;;44.00;;
64110;SDS011;50401;48.188;11.566;2023-03-03T11:33:14;141.57;;;42.83;;
64110;SDS011;50401;48.188;11.566;2023-03-03T11:36:20;115.47;;;43.25;;
64110;SDS011;50401;48.188;11.566;2023-03-03T11:47:01;129.07;;;41.83;;
64110;SDS011;50401;48.188;11.566;2023-03-03T11:49:42;121.70;;;41.22;;
64110;SDS011;50401;48.188;11.566;2023-03-03T12:15:40;144.18;;;46.70;;
64110;SDS011;50401;48.188;11.566;2023-03-03T12:21:41;119.93;;;42.20;;
64110;SDS011;50401;48.188;11.566;2023-03-03T12:24:32;133.95;;;42.15;;
64110;SDS011;50401;48.188;11.566;2023-03-03T12:27:11;110.43;;;40.80;;
64110;SDS011;50401;48.188;11.566;2023-03-03T12:29:42;111.40;;;42.80;;
64110;SDS011;50401;48.188;11.566;2023-03-03T12:38:08;111.32;;;42.92;;
64110;SDS011;50401;48.188;11.566;2023-03-03T12:40:45;104.57;;;41.97;;
64110;SDS011;50401;48.188;11.566;2023-03-03T12:45:54;106.65;;;41.55;;
64110;SDS011;50401;48.188;11.566;2023-03-03T12:51:02;104.20;;;42.22;;
64110;SDS011;50401;48.188;11.566;2023-03-03T12:56:13;112.70;;;41.30;;
64110;SDS011;50401;48.188;11.566;2023-03-03T12:59:13;99.47;;;40.30;;
64110;SDS011;50401;48.188;11.566;2023-03-03T13:05:34;113.53;;;42.70;;
64110;SDS011;50401;48.188;11.566;2023-03-03T13:14:02;126.90;;;43.00;;
64110;SDS011;50401;48.188;11.566;2023-03-03T13:16:48;107.45;;;40.97;;
64110;SDS011;50401;48.188;11.566;2023-03-03T13:19:31;121.10;;;44.92;;
64110;SDS011;50401;48.188;11.566;2023-03-03T13:27:55;109.20;;;41.70;;
64110;SDS011;50401;48.188;11.566;2023-03-03T13:30:27;110.28;;;43.15;;
64110;SDS011;50401;48.188;11.566;2023-03-03T13:33:21;103.93;;;41.67;;
64110;SDS011;50401;48.188;11.566;2023-03-03T13:36:13;105.32;;;40.03;;
64110;SDS011;50401;48.188;11.566;2023-03-03T13:38:50;125.80;;;41.60;;
64110;SDS011;50401;48.188;11.566;2023-03-03T13:41:27;101.53;;;41.30;;
64110;SDS011;50401;48.188;11.566;2023-03-03T13:44:03;113.22;;;43.55;;
64110;SDS011;50401;48.188;11.566;2023-03-03T13:46:57;105.60;;;40.35;;
64110;SDS011;50401;48.188;11.566;2023-03-03T13:52:19;121.10;;;42.92;;
64110;SDS011;50401;48.188;11.566;2023-03-03T13:54:51;117.63;;;44.97;;
64110;SDS011;50401;48.188;11.566;2023-03-03T14:02:57;112.63;;;42.00;;
64110;SDS011;50401;48.188;11.566;2023-03-03T14:05:35;101.25;;;39.60;;
64110;SDS011;50401;48.188;11.566;2023-03-03T14:16:49;108.75;;;40.40;;
64110;SDS011;50401;48.188;11.566;2023-03-03T14:19:18;118.97;;;42.17;;
64110;SDS011;50401;48.188;11.566;2023-03-03T14:24:22;114.93;;;39.25;;
64110;SDS011;50401;48.188;11.566;2023-03-03T14:26:52;101.78;;;41.42;;
64110;SDS011;50401;48.188;11.566;2023-03-03T14:31:47;141.65;;;43.55;;
64110;SDS011;50401;48.188;11.566;2023-03-03T14:36:47;112.03;;;40.63;;
64110;SDS011;50401;48.188;11.566;2023-03-03T14:41:54;108.60;;;40.53;;
64110;SDS011;50401;48.188;11.566;2023-03-03T14:44:24;112.70;;;40.97;;
64110;SDS011;50401;48.188;11.566;2023-03-03T14:47:27;107.15;;;41.70;;
64110;SDS011;50401;48.188;11.566;2023-03-03T14:49:51;112.07;;;40.72;;
64110;SDS011;50401;48.188;11.566;2023-03-03T14:52:23;101.85;;;38.58;;
64110;SDS011;50401;48.188;11.566;2023-03-03T14:54:51;113.28;;;40.30;;
64110;SDS011;50401;48.188;11.566;2023-03-03T14:57:19;112.07;;;38.60;;
64110;SDS011;50401;48.188;11.566;2023-03-03T14:59:58;104.82;;;40.20;;
64110;SDS011;50401;48.188;11.566;2023-03-03T15:02:40;101.28;;;40.55;;
64110;SDS011;50401;48.188;11.566;2023-03-03T15:05:27;104.28;;;39.92;;
64110;SDS011;50401;48.188;11.566;2023-03-03T15:07:54;108.78;;;37.38;;
64110;SDS011;50401;48.188;11.566;2023-03-03T15:10:26;97.05;;;38.67;;
64110;SDS011;50401;48.188;11.566;2023-03-03T15:15:49;117.95;;;39.40;;
64110;SDS011;50401;48.188;11.566;2023-03-03T15:18:15;99.03;;;37.65;;
64110;SDS011;50401;48.188;11.566;2023-03-03T15:20:41;113.07;;;38.90;;
64110;SDS011;50401;48.188;11.566;2023-03-03T15:29:36;96.97;;;38.65;;
64110;SDS011;50401;48.188;11.566;2023-03-03T15:32:05;98.35;;;38.03;;
64110;SDS011;50401;48.188;11.566;2023-03-03T15:37:51;93.13;;;38.63;;
64110;SDS011;50401;48.188;11.566;2023-03-03T15:40:47;110.13;;;39.10;;
64110;SDS011;50401;48.188;11.566;2023-03-03T15:45:49;101.47;;;40.50;;
64110;SDS011;50401;48.188;11.566;2023-03-03T15:51:02;107.20;;;39.58;;
64110;SDS011;50401;48.188;11.566;2023-03-03T15:56:57;101.65;;;39.58;;
64110;SDS011;50401;48.188;11.566;2023-03-03T15:59:32;92.07;;;39.45;;
64110;SDS011;50401;48.188;11.566;2023-03-03T16:05:28;97.95;;;36.40;;
64110;SDS011;50401;48.188;11.566;2023-03-03T16:10:46;99.72;;;39.55;;
64110;SDS011;50401;48.188;11.566;2023-03-03T16:16:12;111.00;;;38.97;;
64110;SDS011;50401;48.188;11.566;2023-03-03T16:22:07;105.68;;;38.33;;
64110;SDS011;50401;48.188;11.566;2023-03-03T16:33:21;114.50;;;38.97;;
64110;SDS011;50401;48.188;11.566;2023-03-03T16:38:34;97.45;;;38.65;;
64110;SDS011;50401;48.188;11.566;2023-03-03T16:41:04;98.57;;;38.28;;
64110;SDS011;50401;48.188;11.566;2023-03-03T16:57:29;99.45;;;38.90;;
64110;SDS011;50401;48.188;11.566;2023-03-03T17:00:49;98.07;;;38.50;;
64110;SDS011;50401;48.188;11.566;2023-03-03T17:05:39;121.40;;;40.53;;
64110;SDS011;50401;48.188;11.566;2023-03-03T17:10:51;116.82;;;40.47;;
64110;SDS011;50401;48.188;11.566;2023-03-03T17:16:13;104.90;;;38.78;;
64110;SDS011;50401;48.188;11.566;2023-03-03T17:18:55;120.15;;;39.00;;
64110;SDS011;50401;48.188;11.566;2023-03-03T17:22:11;111.40;;;39.13;;
64110;SDS011;50401;48.188;11.566;2023-03-03T17:25:22;108.50;;;37.25;;
64110;SDS011;50401;48.188;11.566;2023-03-03T17:36:08;111.30;;;38.90;;
64110;SDS011;50401;48.188;11.566;2023-03-03T17:39:12;104.20;;;39.38;;
64110;SDS011;50401;48.188;11.566;2023-03-03T17:41:51;116.18;;;39.60;;
64110;SDS011;50401;48.188;11.566;2023-03-03T17:44:28;111.97;;;38.42;;
64110;SDS011;50401;48.188;11.566;2023-03-03T17:47:03;114.85;;;41.15;;
64110;SDS011;50401;48.188;11.566;2023-03-03T17:52:29;116.05;;;39.90;;
64110;SDS011;50401;48.188;11.566;2023-03-03T17:57:51;108.18;;;41.05;;
64110;SDS011;50401;48.188;11.566;2023-03-03T18:03:01;112.40;;;42.40;;
64110;SDS011;50401;48.188;11.566;2023-03-03T18:05:37;118.60;;;41.70;;
64110;SDS011;50401;48.188;11.566;2023-03-03T18:08:19;118.43;;;40.30;;
64110;SDS011;50401;48.188;11.566;2023-03-03T18:10:57;116.50;;;42.53;;
64110;SDS011;50401;48.188;11.566;2023-03-03T18:13:49;113.88;;;43.03;;
64110;SDS011;50401;48.188;11.566;2023-03-03T18:22:16;101.80;;;39.08;;
64110;SDS011;50401;48.188;11.566;2023-03-03T18:35:25;120.32;;;41.50;;
64110;SDS011;50401;48.188;11.566;2023-03-03T18:37:55;102.40;;;41.00;;
64110;SDS011;50401;48.188;11.566;2023-03-03T18:41:03;113.20;;;40.70;;
64110;SDS011;50401;48.188;11.566;2023-03-03T18:49:46;110.43;;;41.95;;
64110;SDS011;50401;48.188;11.566;2023-03-03T19:04:38;108.53;;;41.25;;
64110;SDS011;50401;48.188;11.566;2023-03-03T19:09:44;114.72;;;42.90;;
64110;SDS011;50401;48.188;11.566;2023-03-03T19:12:17;113.18;;;40.20;;
64110;SDS011;50401;48.188;11.566;2023-03-03T19:14:46;119.45;;;45.00;;
64110;SDS011;50401;48.188;11.566;2023-03-03T19:25:28;117.00;;;44.63;;
64110;SDS011;50401;48.188;11.566;2023-03-03T19:30:55;114.28;;;43.50;;
64110;SDS011;50401;48.188;11.566;2023-03-03T20:02:09;113.72;;;45.55;;
64110;SDS011;50401;48.188;11.566;2023-03-03T20:04:54;122.38;;;46.90;;
64110;SDS011;50401;48.188;11.566;2023-03-03T20:23:42;121.95;;;45.90;;
64110;SDS011;50401;48.188;11.566;2023-03-03T20:34:30;125.18;;;46.72;;
64110;SDS011;50401;48.188;11.566;2023-03-03T20:42:50;138.32;;;46.08;;
64110;SDS011;50401;48.188;11.566;2023-03-03T20:45:23;125.72;;;46.38;;
64110;SDS011;50401;48.188;11.566;2023-03-03T20:51:03;118.95;;;43.08;;
64110;SDS011;50401;48.188;11.566;2023-03-03T20:56:47;114.18;;;44.60;;
64110;SDS011;50401;48.188;11.566;2023-03-03T20:59:34;133.88;;;46.78;;
64110;SDS011;50401;48.188;11.566;2023-03-03T21:02:14;118.57;;;45.47;;